Time;durP1;ratioP1;P1;durP2;ratioP2;P2;SDS_P1;SDS_P2;PMS_P1;PMS_P2;Temp;Humidity;BMP_temperature;BMP_pressure;BME280_temperature;BME280_humidity;BME280_pressure;Samples;Min_cycle;Max_cycle;Signal;HPM_P1;HPM_P2
2021/12/11 00:01:48;;;;;;;25.05;9.45;;;3.40;91.30;;;;;;4963170;28;20023;-64
2021/12/11 00:04:22;;;;;;;24.08;10.93;;;3.30;91.20;;;;;;4966877;28;20038;-64
2021/12/11 00:06:52;;;;;;;27.15;12.35;;;3.40;91.30;;;;;;4966545;28;20089;-64
2021/12/11 00:09:23;;;;;;;24.73;10.90;;;3.40;91.50;;;;;;4964659;28;20046;-60
2021/12/11 00:11:55;;;;;;;26.00;10.38;;;3.40;91.50;;;;;;4963152;28;20815;-65
2021/12/11 00:14:22;;;;;;;22.08;11.38;;;3.40;91.30;;;;;;4960767;28;20093;-67
2021/12/11 00:16:49;;;;;;;27.13;11.65;;;3.40;91.30;;;;;;4970964;28;20047;-64
2021/12/11 00:19:21;;;;;;;21.83;9.25;;;3.40;91.10;;;;;;4967167;28;20138;-65
2021/12/11 00:21:48;;;;;;;21.58;10.07;;;3.40;91.20;;;;;;4964980;28;20054;-64
2021/12/11 00:24:23;;;;;;;24.48;10.77;;;3.40;91.20;;;;;;4963461;28;20031;-66
2021/12/11 00:26:53;;;;;;;23.10;10.57;;;3.30;91.20;;;;;;4960133;28;20050;-68
2021/12/11 00:29:24;;;;;;;21.58;10.18;;;3.30;91.30;;;;;;4961551;28;20042;-68
2021/12/11 00:31:54;;;;;;;30.25;12.15;;;3.40;91.40;;;;;;4955478;28;20043;-68
2021/12/11 00:34:21;;;;;;;26.35;10.60;;;3.40;91.40;;;;;;4962770;28;20101;-68
2021/12/11 00:36:54;;;;;;;23.42;10.27;;;3.40;91.40;;;;;;4964277;28;20038;-68
2021/12/11 00:39:20;;;;;;;22.90;10.43;;;3.40;91.30;;;;;;4961039;28;20027;-68
2021/12/11 00:41:53;;;;;;;27.30;11.20;;;3.40;91.20;;;;;;4962290;28;20058;-68
2021/12/11 00:44:20;;;;;;;29.35;10.57;;;3.40;91.20;;;;;;4966647;28;20073;-70
2021/12/11 00:46:45;;;;;;;25.33;10.88;;;3.50;90.80;;;;;;4963966;28;20121;-68
2021/12/11 00:49:21;;;;;;;27.85;11.68;;;3.50;90.90;;;;;;4966704;28;20094;-68
2021/12/11 00:51:53;;;;;;;22.33;10.00;;;3.40;90.90;;;;;;4961732;28;20097;-68
2021/12/11 00:54:20;;;;;;;22.77;9.73;;;3.40;91.00;;;;;;4962803;28;20281;-68
2021/12/11 00:56:47;;;;;;;32.72;12.10;;;3.40;91.10;;;;;;4963273;28;20125;-69
2021/12/11 00:59:17;;;;;;;32.35;12.55;;;3.40;91.10;;;;;;4967092;28;20038;-69
2021/12/11 01:01:50;;;;;;;32.42;13.80;;;3.50;91.10;;;;;;4970182;28;20479;-68
2021/12/11 01:04:22;;;;;;;27.95;11.70;;;3.50;90.90;;;;;;4968495;28;20043;-68
2021/12/11 01:06:55;;;;;;;35.03;13.77;;;3.40;91.00;;;;;;4965564;28;20150;-68
2021/12/11 01:09:30;;;;;;;32.88;12.75;;;3.50;91.00;;;;;;4964124;28;20544;-69
2021/12/11 01:12:07;;;;;;;27.40;11.02;;;3.50;90.80;;;;;;4965122;28;20057;-68
2021/12/11 01:14:52;;;;;;;24.25;9.82;;;3.40;90.80;;;;;;4965846;28;20514;-68
2021/12/11 01:17:40;;;;;;;23.55;9.23;;;3.40;91.00;;;;;;4966838;28;20117;-68
2021/12/11 01:20:16;;;;;;;31.05;12.05;;;3.40;91.20;;;;;;4962943;28;20030;-68
2021/12/11 01:22:43;;;;;;;;;;;3.40;91.20;;;;;;4963435;28;20045;-68
2021/12/11 01:25:20;;;;;;;22.23;8.88;;;3.40;91.10;;;;;;4963077;28;20443;-68
2021/12/11 01:28:01;;;;;;;29.85;10.55;;;3.40;90.90;;;;;;4967482;28;20046;-68
2021/12/11 01:30:32;;;;;;;19.25;8.88;;;3.40;91.00;;;;;;4962878;28;20728;-68
2021/12/11 01:32:58;;;;;;;22.48;9.90;;;3.40;91.10;;;;;;4964933;28;20066;-68
2021/12/11 01:35:25;;;;;;;28.15;10.07;;;3.40;91.30;;;;;;4963911;28;20041;-68
2021/12/11 01:37:59;;;;;;;26.42;10.10;;;3.40;91.40;;;;;;4962781;28;20138;-68
2021/12/11 01:40:30;;;;;;;25.33;10.35;;;3.40;91.40;;;;;;4965121;28;20031;-68
2021/12/11 01:42:56;;;;;;;23.35;10.07;;;3.40;91.50;;;;;;4966404;28;20058;-68
2021/12/11 01:45:22;;;;;;;26.45;10.38;;;3.40;91.50;;;;;;4960827;28;20514;-68
2021/12/11 01:47:48;;;;;;;34.38;12.82;;;3.40;91.50;;;;;;4965037;28;20047;-68
2021/12/11 01:50:23;;;;;;;23.65;10.52;;;3.40;91.40;;;;;;4962340;28;20088;-68
2021/12/11 01:52:54;;;;;;;24.23;9.80;;;3.50;91.20;;;;;;4962179;28;20411;-68
2021/12/11 01:55:35;;;;;;;29.98;12.82;;;3.40;90.90;;;;;;4966562;28;20049;-68
2021/12/11 01:58:04;;;;;;;27.75;12.35;;;3.40;91.10;;;;;;4961186;28;20078;-68
2021/12/11 02:00:45;;;;;;;25.73;10.63;;;3.40;91.30;;;;;;4962754;28;20034;-68
2021/12/11 02:03:15;;;;;;;25.15;10.00;;;3.40;91.30;;;;;;4961910;28;20039;-68
2021/12/11 02:05:43;;;;;;;25.80;10.18;;;3.40;91.40;;;;;;4961531;28;20559;-68
2021/12/11 02:08:18;;;;;;;23.52;9.73;;;3.40;91.20;;;;;;4965352;28;20538;-68
2021/12/11 02:10:46;;;;;;;28.70;11.20;;;3.40;91.50;;;;;;4962177;28;20805;-68
2021/12/11 02:13:22;;;;;;;24.90;11.65;;;3.40;91.30;;;;;;4954127;28;20499;-68
2021/12/11 02:15:52;;;;;;;;;;;3.30;91.10;;;;;;4962896;28;20034;-68
2021/12/11 02:18:22;;;;;;;21.52;9.65;;;3.30;90.90;;;;;;4960795;28;20015;-68
2021/12/11 02:20:57;;;;;;;22.60;10.40;;;3.30;91.10;;;;;;4961800;28;20031;-68
2021/12/11 02:23:24;;;;;;;29.50;11.43;;;3.20;91.20;;;;;;4963610;28;20472;-68
2021/12/11 02:25:54;;;;;;;21.92;9.13;;;3.20;91.20;;;;;;4966367;28;20034;-68
2021/12/11 02:28:23;;;;;;;21.92;10.38;;;3.20;91.00;;;;;;4963577;28;20042;-68
2021/12/11 02:30:54;;;;;;;22.52;10.38;;;3.20;91.30;;;;;;4962144;28;20035;-68
2021/12/11 02:33:24;;;;;;;22.65;9.98;;;3.20;91.40;;;;;;4960866;28;20039;-68
2021/12/11 02:36:11;;;;;;;20.38;9.18;;;3.20;91.40;;;;;;4975264;28;20070;-68
2021/12/11 02:39:02;;;;;;;18.50;7.93;;;3.20;91.20;;;;;;4961471;28;20446;-67
2021/12/11 02:41:30;;;;;;;19.55;8.70;;;3.20;91.30;;;;;;4961527;28;20085;-67
2021/12/11 02:44:05;;;;;;;22.13;9.90;;;3.20;91.40;;;;;;4961430;28;20031;-67
2021/12/11 02:46:37;;;;;;;22.50;9.35;;;3.20;91.30;;;;;;4960686;28;20031;-67
2021/12/11 02:49:18;;;;;;;26.95;9.15;;;3.20;91.30;;;;;;4959652;28;20050;-67
2021/12/11 02:51:54;;;;;;;30.85;10.10;;;3.30;91.20;;;;;;4962061;28;20039;-67
2021/12/11 02:54:28;;;;;;;22.40;10.18;;;3.30;91.10;;;;;;4964063;28;20030;-67
2021/12/11 02:57:23;;;;;;;32.53;11.45;;;3.30;91.10;;;;;;4960111;28;20085;-67
2021/12/11 02:59:48;;;;;;;29.58;10.40;;;3.30;91.10;;;;;;4961273;28;20043;-67
2021/12/11 03:02:25;;;;;;;27.90;12.13;;;3.30;90.80;;;;;;4957647;28;20454;-68
2021/12/11 03:04:55;;;;;;;20.35;9.25;;;3.30;90.80;;;;;;4965337;28;20101;-67
2021/12/11 03:07:34;;;;;;;23.45;10.25;;;3.30;90.80;;;;;;4926449;28;1063574;-67
2021/12/11 03:10:03;;;;;;;23.25;10.48;;;3.20;91.00;;;;;;4961197;28;20038;-67
2021/12/11 03:12:29;;;;;;;22.98;8.73;;;3.30;91.10;;;;;;4963079;28;20054;-67
2021/12/11 03:14:55;;;;;;;26.58;10.82;;;3.20;91.30;;;;;;4973446;28;20490;-67
2021/12/11 03:17:22;;;;;;;30.48;12.23;;;3.20;91.20;;;;;;4968155;28;20868;-67
2021/12/11 03:19:48;;;;;;;27.00;11.23;;;3.20;91.20;;;;;;4971226;28;20038;-67
2021/12/11 03:22:20;;;;;;;28.73;11.00;;;3.30;91.30;;;;;;4966081;28;20066;-68
2021/12/11 03:24:46;;;;;;;30.92;11.18;;;3.20;91.30;;;;;;4967385;28;20262;-67
2021/12/11 03:27:12;;;;;;;38.38;13.80;;;3.20;91.40;;;;;;4966681;28;20066;-67
2021/12/11 03:29:38;;;;;;;35.55;12.98;;;3.30;91.50;;;;;;4965263;28;20049;-67
2021/12/11 03:32:06;;;;;;;27.70;10.80;;;3.30;91.40;;;;;;4969836;28;20042;-67
2021/12/11 03:34:32;;;;;;;31.65;11.13;;;3.30;91.30;;;;;;4966801;28;20039;-68
2021/12/11 03:36:59;;;;;;;28.80;11.13;;;3.30;91.40;;;;;;4969006;28;20037;-67
2021/12/11 03:39:32;;;;;;;29.88;10.80;;;3.30;91.20;;;;;;4966126;28;20038;-68
2021/12/11 03:42:00;;;;;;;31.10;11.07;;;3.20;91.40;;;;;;4965852;28;20550;-67
2021/12/11 03:44:32;;;;;;;30.20;11.57;;;3.20;91.40;;;;;;4963500;28;20474;-68
2021/12/11 03:46:59;;;;;;;27.00;10.75;;;3.20;91.50;;;;;;4969790;28;20038;-67
2021/12/11 03:49:25;;;;;;;30.85;11.15;;;3.20;91.50;;;;;;4964943;28;20043;-67
2021/12/11 03:51:53;;;;;;;35.38;12.95;;;3.20;91.50;;;;;;4969095;28;20798;-63
2021/12/11 03:54:24;;;;;;;42.30;13.07;;;3.30;91.40;;;;;;4964683;28;20049;-63
2021/12/11 03:56:50;;;;;;;30.98;12.55;;;3.30;91.30;;;;;;4964604;28;20087;-62
2021/12/11 03:59:16;;;;;;;28.42;11.10;;;3.30;91.30;;;;;;4965895;28;20049;-63
2021/12/11 04:01:49;;;;;;;47.97;14.32;;;3.30;91.20;;;;;;4966725;28;20035;-63
2021/12/11 04:04:20;;;;;;;40.50;14.88;;;3.20;91.30;;;;;;4969013;28;20141;-63
2021/12/11 04:06:46;;;;;;;32.20;11.10;;;3.20;91.40;;;;;;4967470;28;20042;-63
2021/12/11 04:09:13;;;;;;;26.33;10.60;;;3.20;91.50;;;;;;4974725;28;20081;-63
2021/12/11 04:11:40;;;;;;;25.23;9.10;;;3.20;91.50;;;;;;4964452;28;20066;-62
2021/12/11 04:14:10;;;;;;;23.98;9.80;;;3.30;91.40;;;;;;4964827;28;20085;-62
2021/12/11 04:16:36;;;;;;;23.45;9.80;;;3.20;91.20;;;;;;4969848;28;20055;-63
2021/12/11 04:19:05;;;;;;;24.83;10.45;;;3.20;91.10;;;;;;4968509;28;20706;-65
2021/12/11 04:21:32;;;;;;;21.55;9.73;;;3.20;90.90;;;;;;4964366;28;20494;-66
2021/12/11 04:23:58;;;;;;;27.35;10.75;;;3.20;91.30;;;;;;4964891;28;20038;-63
2021/12/11 04:26:24;;;;;;;31.08;11.25;;;3.10;91.40;;;;;;4962127;28;20038;-63
2021/12/11 04:28:50;;;;;;;28.83;10.40;;;3.20;91.40;;;;;;4968528;28;20042;-63
2021/12/11 04:31:24;;;;;;;30.73;11.80;;;3.10;91.40;;;;;;4947489;28;20683;-62
2021/12/11 04:33:52;;;;;;;22.83;9.18;;;3.20;91.30;;;;;;4964011;28;20045;-63
2021/12/11 04:36:22;;;;;;;25.05;10.50;;;3.10;91.20;;;;;;4964626;28;20051;-63
2021/12/11 04:38:50;;;;;;;29.17;10.98;;;3.10;91.30;;;;;;4948046;28;20153;-63
2021/12/11 04:41:22;;;;;;;28.05;11.18;;;3.10;91.40;;;;;;4965142;28;20074;-63
2021/12/11 04:43:50;;;;;;;24.58;10.20;;;3.10;91.00;;;;;;4970192;28;20450;-63
2021/12/11 04:46:16;;;;;;;46.00;12.20;;;3.10;90.80;;;;;;4963855;28;20047;-63
2021/12/11 04:49:15;;;;;;;24.30;10.18;;;3.10;91.00;;;;;;4966025;28;20045;-63
2021/12/11 04:51:51;;;;;;;28.90;10.63;;;3.00;90.90;;;;;;4964426;28;20069;-63
2021/12/11 05:02:56;;;;;;;41.03;11.68;;;3.00;91.20;;;;;;4965853;28;20027;-63
2021/12/11 05:05:30;;;;;;;26.90;10.77;;;3.00;91.00;;;;;;4965116;28;20046;-62
2021/12/11 05:10:55;;;;;;;26.75;10.85;;;3.00;91.30;;;;;;4967138;28;20042;-63
2021/12/11 05:13:15;;;;;;;24.95;9.65;;;3.00;91.40;;;;;;4962455;28;21041;-63
2021/12/11 05:15:44;;;;;;;38.15;10.82;;;3.00;91.50;;;;;;4955138;28;20627;-63
2021/12/11 05:18:13;;;;;;;26.55;9.98;;;2.90;91.50;;;;;;4961911;28;20093;-63
2021/12/11 05:20:41;;;;;;;27.02;10.60;;;2.90;91.20;;;;;;4961102;28;20211;-63
2021/12/11 05:23:06;;;;;;;29.08;10.95;;;2.90;91.40;;;;;;4962213;28;20028;-63
2021/12/11 05:25:32;;;;;;;41.88;15.30;;;2.90;91.60;;;;;;4964670;28;20852;-65
2021/12/11 05:27:59;;;;;;;28.55;11.07;;;2.90;91.40;;;;;;4964888;28;20121;-63
2021/12/11 05:30:37;;;;;;;27.70;10.40;;;2.90;91.20;;;;;;4965028;28;20062;-65
2021/12/11 05:33:04;;;;;;;28.90;11.57;;;2.80;91.40;;;;;;4960785;28;20710;-65
2021/12/11 05:35:32;;;;;;;26.60;9.70;;;2.90;91.50;;;;;;4961233;28;20042;-63
2021/12/11 05:37:59;;;;;;;30.80;11.43;;;2.80;91.60;;;;;;4961556;28;20035;-63
2021/12/11 05:40:26;;;;;;;28.40;9.77;;;2.80;91.80;;;;;;4963463;28;20035;-66
2021/12/11 05:42:53;;;;;;;26.50;9.85;;;2.90;91.70;;;;;;4974638;28;20142;-66
2021/12/11 05:45:19;;;;;;;33.42;10.48;;;2.90;91.60;;;;;;4960966;28;20045;-63
2021/12/11 05:47:46;;;;;;;38.10;15.43;;;2.90;91.60;;;;;;4962173;28;20038;-63
2021/12/11 05:50:17;;;;;;;39.45;15.10;;;2.90;91.60;;;;;;4961680;28;20627;-63
2021/12/11 05:52:44;;;;;;;31.75;11.63;;;2.90;91.50;;;;;;4963297;28;20042;-63
2021/12/11 05:55:14;;;;;;;36.05;14.23;;;2.90;91.40;;;;;;4968016;28;20112;-65
2021/12/11 05:57:41;;;;;;;44.20;19.67;;;2.90;91.20;;;;;;4962513;28;20393;-65
2021/12/11 06:00:11;;;;;;;42.75;18.67;;;2.90;91.00;;;;;;4963494;28;20019;-65
2021/12/11 06:02:38;;;;;;;66.80;24.80;;;2.90;91.10;;;;;;4962418;28;20399;-65
2021/12/11 06:05:05;;;;;;;46.38;19.08;;;2.90;91.20;;;;;;4959545;28;20027;-64
2021/12/11 06:07:31;;;;;;;38.00;14.27;;;2.90;91.20;;;;;;4963099;28;20062;-65
2021/12/11 06:10:07;;;;;;;30.02;11.30;;;2.90;91.10;;;;;;4958889;28;20793;-65
2021/12/11 06:12:33;;;;;;;;;;;2.90;91.00;;;;;;4962964;28;20035;-66
2021/12/11 06:14:59;;;;;;;37.30;13.27;;;2.90;90.90;;;;;;4971411;28;20396;-64
2021/12/11 06:17:30;;;;;;;37.10;12.60;;;2.80;91.00;;;;;;4960585;28;20053;-65
2021/12/11 06:19:58;;;;;;;27.08;9.57;;;2.80;91.10;;;;;;4964113;28;20023;-78
2021/12/11 06:22:30;;;;;;;22.50;8.95;;;2.90;90.80;;;;;;4956496;28;20578;-63
2021/12/11 06:24:58;;;;;;;25.25;10.32;;;2.80;90.80;;;;;;4959609;28;20058;-65
2021/12/11 06:27:25;;;;;;;22.55;7.95;;;2.70;91.30;;;;;;4960319;28;20859;-65
2021/12/11 06:29:51;;;;;;;22.52;9.45;;;2.60;91.20;;;;;;4960943;28;20042;-66
2021/12/11 06:32:18;;;;;;;29.80;9.55;;;2.60;91.20;;;;;;4959274;28;20042;-66
2021/12/11 06:34:44;;;;;;;32.40;9.02;;;2.60;91.40;;;;;;4958256;28;20069;-66
2021/12/11 06:37:11;;;;;;;19.00;7.78;;;2.60;91.40;;;;;;4959966;28;20050;-63
2021/12/11 06:39:37;;;;;;;45.92;14.52;;;2.70;91.30;;;;;;4960391;28;20042;-65
2021/12/11 06:42:06;;;;;;;26.52;10.57;;;2.70;91.40;;;;;;4959305;28;20034;-65
2021/12/11 06:44:33;;;;;;;33.50;10.50;;;2.80;91.30;;;;;;4957928;28;20042;-65
2021/12/11 06:47:02;;;;;;;27.88;9.38;;;2.80;91.10;;;;;;4957238;28;20035;-66
2021/12/11 06:49:30;;;;;;;25.10;9.63;;;2.70;91.10;;;;;;4959897;28;20034;-65
2021/12/11 06:51:56;;;;;;;21.05;8.13;;;2.70;91.30;;;;;;4959686;28;20035;-66
2021/12/11 06:54:22;;;;;;;20.70;8.60;;;2.70;91.30;;;;;;4956496;28;20086;-66
2021/12/11 06:56:48;;;;;;;21.30;8.23;;;2.70;91.40;;;;;;4960663;28;20035;-65
2021/12/11 06:59:14;;;;;;;20.33;9.07;;;2.70;91.50;;;;;;4959156;28;20109;-66
2021/12/11 07:01:41;;;;;;;21.48;8.13;;;2.70;91.50;;;;;;4957111;28;20782;-68
2021/12/11 07:04:10;;;;;;;19.25;8.80;;;2.70;91.60;;;;;;4953660;28;20034;-73
2021/12/11 07:06:43;;;;;;;23.42;9.35;;;2.70;91.20;;;;;;4959072;28;20069;-73
2021/12/11 07:09:11;;;;;;;23.50;9.40;;;2.70;91.60;;;;;;4958728;28;20038;-70
2021/12/11 07:11:39;;;;;;;51.80;19.50;;;2.70;91.50;;;;;;4960199;28;20035;-71
2021/12/11 07:14:06;;;;;;;37.25;15.50;;;2.70;91.50;;;;;;4946931;28;20122;-70
2021/12/11 07:16:33;;;;;;;43.58;18.33;;;2.70;91.30;;;;;;4959868;28;20959;-70
2021/12/11 07:18:59;;;;;;;72.45;28.38;;;2.70;91.30;;;;;;4961618;28;20034;-71
2021/12/11 07:21:24;;;;;;;56.47;22.58;;;2.80;91.10;;;;;;4960244;28;20023;-70
2021/12/11 07:23:50;;;;;;;33.58;13.77;;;2.70;91.00;;;;;;4959829;28;20458;-70
2021/12/11 07:26:28;;;;;;;39.63;17.73;;;2.80;90.90;;;;;;4960045;28;20042;-71
2021/12/11 07:28:57;;;;;;;58.33;23.55;;;2.70;90.80;;;;;;4972886;28;20271;-70
2021/12/11 07:31:25;;;;;;;44.60;18.08;;;2.80;91.10;;;;;;4959243;28;20026;-70
2021/12/11 07:33:51;;;;;;;31.98;10.38;;;2.80;90.80;;;;;;4961140;28;20030;-70
2021/12/11 07:36:17;;;;;;;31.98;10.95;;;2.80;90.90;;;;;;4956453;28;20031;-70
2021/12/11 07:38:43;;;;;;;34.92;13.95;;;2.80;90.90;;;;;;4959902;28;20125;-70
2021/12/11 07:41:13;;;;;;;28.17;11.45;;;2.80;90.90;;;;;;4958851;28;20037;-70
2021/12/11 07:43:41;;;;;;;52.45;18.65;;;2.80;90.80;;;;;;4960004;28;20406;-71
2021/12/11 07:46:10;;;;;;;31.33;11.43;;;2.80;90.80;;;;;;4958006;28;20094;-70
2021/12/11 07:48:36;;;;;;;27.10;10.20;;;2.80;90.80;;;;;;4957527;28;20043;-70
2021/12/11 07:51:04;;;;;;;22.60;9.95;;;2.80;90.70;;;;;;4959267;28;20744;-70
2021/12/11 07:53:30;;;;;;;31.25;10.63;;;2.80;90.40;;;;;;4958331;28;20068;-70
2021/12/11 07:55:56;;;;;;;23.00;9.25;;;2.80;90.30;;;;;;4960223;28;20085;-70
2021/12/11 07:58:22;;;;;;;40.60;14.07;;;2.70;90.10;;;;;;4962527;28;20038;-70
2021/12/11 08:00:49;;;;;;;36.78;13.68;;;2.60;90.20;;;;;;4963221;28;20038;-70
2021/12/11 08:03:17;;;;;;;23.42;8.90;;;2.60;90.30;;;;;;4958434;28;20023;-68
2021/12/11 08:05:45;;;;;;;26.50;10.45;;;2.60;90.40;;;;;;4958630;28;20159;-69
2021/12/11 08:08:12;;;;;;;21.67;7.82;;;2.60;90.50;;;;;;4964134;28;20114;-68
2021/12/11 08:10:42;;;;;;;22.75;9.32;;;2.60;90.60;;;;;;4962936;28;20121;-69
2021/12/11 08:13:08;;;;;;;24.77;11.05;;;2.60;90.10;;;;;;4962861;28;20062;-69
2021/12/11 08:15:35;;;;;;;31.40;12.88;;;2.60;90.20;;;;;;4964254;28;20038;-72
2021/12/11 08:18:04;;;;;;;24.58;9.88;;;2.60;90.50;;;;;;4961831;28;20029;-69
2021/12/11 08:20:32;;;;;;;21.80;8.98;;;2.60;90.50;;;;;;4964084;28;20082;-67
2021/12/11 08:22:59;;;;;;;24.10;8.18;;;2.50;90.50;;;;;;4963614;28;20611;-69
2021/12/11 08:25:27;;;;;;;21.23;9.00;;;2.50;90.30;;;;;;4962023;28;20030;-71
2021/12/11 08:27:55;;;;;;;21.38;8.73;;;2.50;90.50;;;;;;4962417;28;20042;-71
2021/12/11 08:30:22;;;;;;;39.33;11.65;;;2.60;90.50;;;;;;4961970;28;20057;-72
2021/12/11 08:32:48;;;;;;;35.90;11.40;;;2.60;90.60;;;;;;4962604;28;20042;-71
2021/12/11 08:35:14;;;;;;;35.63;13.07;;;2.50;90.50;;;;;;4960375;28;20407;-71
2021/12/11 08:37:44;;;;;;;24.98;10.07;;;2.50;90.60;;;;;;4963603;28;20065;-71
2021/12/11 08:40:17;;;;;;;28.55;10.35;;;2.50;90.80;;;;;;4960736;28;20030;-69
2021/12/11 08:42:43;;;;;;;22.48;9.05;;;2.50;90.60;;;;;;4961034;28;20026;-69
2021/12/11 08:45:20;;;;;;;24.63;9.38;;;2.60;90.70;;;;;;4961371;28;20057;-69
2021/12/11 08:47:47;;;;;;;29.65;10.60;;;2.60;90.60;;;;;;4958813;28;20046;-69
2021/12/11 08:50:17;;;;;;;36.78;11.52;;;2.50;90.60;;;;;;4959952;28;20046;-70
2021/12/11 08:52:45;;;;;;;24.83;10.32;;;2.50;90.80;;;;;;4957970;28;20670;-68
2021/12/11 08:55:16;;;;;;;23.48;9.43;;;2.60;90.60;;;;;;4963745;28;20562;-70
2021/12/11 08:57:42;;;;;;;28.92;10.43;;;2.60;90.50;;;;;;4961455;28;20050;-70
2021/12/11 09:00:17;;;;;;;25.13;10.15;;;2.70;90.60;;;;;;4972896;28;20034;-70
2021/12/11 09:02:57;;;;;;;24.63;9.40;;;2.70;90.40;;;;;;4962009;28;20113;-70
2021/12/11 09:05:36;;;;;;;31.60;11.50;;;2.60;90.30;;;;;;4960165;28;20074;-70
2021/12/11 09:08:16;;;;;;;26.77;10.63;;;2.60;90.40;;;;;;4964717;28;20034;-68
2021/12/11 09:10:55;;;;;;;20.60;8.18;;;2.60;90.60;;;;;;4962603;28;20067;-69
2021/12/11 09:13:28;;;;;;;19.55;8.80;;;2.70;90.70;;;;;;4959234;28;20081;-69
2021/12/11 09:16:04;;;;;;;26.58;10.77;;;2.70;90.70;;;;;;4964174;28;20042;-69
2021/12/11 09:18:41;;;;;;;29.02;11.40;;;2.70;90.80;;;;;;4959774;28;20035;-70
2021/12/11 09:21:12;;;;;;;24.33;9.48;;;2.80;90.50;;;;;;4958470;28;20124;-70
2021/12/11 09:24:05;;;;;;;32.13;12.07;;;2.90;90.50;;;;;;4961162;28;20035;-69
2021/12/11 09:26:49;;;;;;;28.00;10.27;;;2.90;90.60;;;;;;4960643;28;20130;-70
2021/12/11 09:29:25;;;;;;;28.48;9.25;;;3.00;90.60;;;;;;4962010;28;20794;-69
2021/12/11 09:32:17;;;;;;;26.02;9.80;;;3.00;90.10;;;;;;4959300;28;20046;-69
2021/12/11 09:34:55;;;;;;;27.67;10.23;;;3.00;89.40;;;;;;4959445;28;20562;-69
2021/12/11 09:37:22;;;;;;;22.80;9.88;;;2.90;90.00;;;;;;4973145;28;20045;-70
2021/12/11 09:40:11;;;;;;;25.08;10.43;;;2.80;90.20;;;;;;4964393;28;20031;-70
2021/12/11 09:42:37;;;;;;;24.40;10.55;;;2.70;90.10;;;;;;4957022;28;20053;-70
2021/12/11 09:45:13;;;;;;;23.52;10.82;;;2.70;90.30;;;;;;4962572;28;20083;-70
2021/12/11 09:47:49;;;;;;;19.60;8.18;;;2.80;90.40;;;;;;4958891;28;20089;-70
2021/12/11 09:50:20;;;;;;;22.60;10.05;;;2.80;90.30;;;;;;4959775;28;20124;-69
2021/12/11 09:52:46;;;;;;;20.73;8.05;;;2.80;90.00;;;;;;4959782;28;20041;-69
2021/12/11 09:55:20;;;;;;;22.10;8.43;;;2.80;90.20;;;;;;4960798;28;20802;-69
2021/12/11 09:57:51;;;;;;;18.40;7.40;;;2.90;90.40;;;;;;4961506;28;20031;-68
2021/12/11 10:00:26;;;;;;;17.27;8.15;;;2.90;90.10;;;;;;4960063;28;20045;-68
2021/12/11 10:02:52;;;;;;;18.08;8.45;;;2.90;90.10;;;;;;4958897;28;20030;-69
2021/12/11 10:05:32;;;;;;;17.33;7.63;;;3.00;90.10;;;;;;4967254;28;20054;-67
2021/12/11 10:10:54;;;;;;;18.42;7.68;;;3.10;90.00;;;;;;4959523;28;20057;-69
2021/12/11 10:13:20;;;;;;;17.42;7.90;;;3.10;89.50;;;;;;4960108;28;20533;-68
2021/12/11 10:15:46;;;;;;;17.45;7.03;;;3.20;89.80;;;;;;4960140;28;20109;-68
2021/12/11 10:18:18;;;;;;;15.95;7.22;;;3.20;89.30;;;;;;4957920;28;20498;-68
2021/12/11 10:20:53;;;;;;;16.95;7.22;;;3.30;90.00;;;;;;4959286;28;20041;-68
2021/12/11 10:23:26;;;;;;;15.77;7.70;;;3.30;89.40;;;;;;4956602;28;20905;-69
2021/12/11 10:25:53;;;;;;;17.17;6.90;;;3.40;88.70;;;;;;4968069;28;20100;-68
2021/12/11 10:28:23;;;;;;;19.15;8.40;;;3.40;87.50;;;;;;4970504;28;20193;-74
2021/12/11 10:30:54;;;;;;;18.38;8.27;;;3.50;88.00;;;;;;4959537;28;20038;-72
2021/12/11 10:33:23;;;;;;;21.15;8.43;;;3.50;87.60;;;;;;4959457;28;20039;-71
2021/12/11 10:35:52;;;;;;;22.45;9.23;;;3.50;87.20;;;;;;4949848;28;20496;-69
2021/12/11 10:38:20;;;;;;;22.70;9.60;;;3.50;87.00;;;;;;4960452;28;20049;-66
2021/12/11 10:40:50;;;;;;;20.42;8.73;;;3.50;87.20;;;;;;4959090;28;20043;-68
2021/12/11 10:43:30;;;;;;;22.15;9.10;;;3.40;86.40;;;;;;4960806;28;20107;-68
2021/12/11 10:45:58;;;;;;;21.50;8.82;;;3.40;87.20;;;;;;4960283;28;20046;-68
2021/12/11 10:48:28;;;;;;;19.48;8.55;;;3.40;87.70;;;;;;4971475;28;20217;-68
2021/12/11 10:51:00;;;;;;;20.52;8.88;;;3.30;88.00;;;;;;4960979;28;20060;-69
2021/12/11 10:53:27;;;;;;;24.20;9.63;;;3.30;87.70;;;;;;4957659;28;20062;-69
2021/12/11 10:55:58;;;;;;;19.65;8.98;;;3.40;87.60;;;;;;4959386;28;20031;-70
2021/12/11 10:58:31;;;;;;;25.67;10.80;;;3.40;87.30;;;;;;4959804;28;20031;-67
2021/12/11 11:00:59;;;;;;;22.13;10.15;;;3.40;88.10;;;;;;4961729;28;20039;-67
2021/12/11 11:03:29;;;;;;;24.25;9.50;;;3.30;88.20;;;;;;4957374;28;20081;-67
2021/12/11 11:05:56;;;;;;;22.15;9.82;;;3.30;88.00;;;;;;4960702;28;20034;-68
2021/12/11 11:08:22;;;;;;;23.67;10.90;;;3.30;88.10;;;;;;4960648;28;20161;-68
2021/12/11 11:10:55;;;;;;;26.15;12.32;;;3.30;88.50;;;;;;4957449;28;20038;-68
2021/12/11 11:13:23;;;;;;;23.17;10.57;;;3.40;88.70;;;;;;4961678;28;20130;-68
2021/12/11 11:15:50;;;;;;;19.90;9.50;;;3.40;88.60;;;;;;4960537;28;20081;-67
2021/12/11 11:18:19;;;;;;;17.02;8.65;;;3.50;88.40;;;;;;4958946;28;20066;-68
2021/12/11 11:20:49;;;;;;;18.63;9.00;;;3.60;88.40;;;;;;4959703;28;20121;-69
2021/12/11 11:23:15;;;;;;;20.27;10.15;;;3.60;88.40;;;;;;4959242;28;20597;-68
2021/12/11 11:25:45;;;;;;;20.33;10.68;;;3.60;88.80;;;;;;4958967;28;20125;-69
2021/12/11 11:28:18;;;;;;;22.70;9.30;;;3.60;87.20;;;;;;4960039;28;20037;-69
2021/12/11 11:30:50;;;;;;;18.58;8.60;;;3.60;87.50;;;;;;4960673;28;20034;-69
2021/12/11 11:33:16;;;;;;;19.90;9.27;;;3.50;87.60;;;;;;4953977;28;20034;-70
2021/12/11 11:35:45;;;;;;;23.88;9.48;;;3.50;88.90;;;;;;4963299;28;20041;-69
2021/12/11 11:38:15;;;;;;;27.38;10.48;;;3.60;89.00;;;;;;4961703;28;20380;-71
2021/12/11 11:40:45;;;;;;;21.88;9.65;;;3.60;88.50;;;;;;4963060;28;20942;-69
2021/12/11 11:43:11;;;;;;;21.33;11.07;;;3.60;88.60;;;;;;4963004;28;20432;-70
2021/12/11 11:45:39;;;;;;;20.38;9.70;;;3.60;88.60;;;;;;4962050;28;20411;-69
2021/12/11 11:48:06;;;;;;;22.42;9.18;;;3.60;88.60;;;;;;4963465;28;20799;-70
2021/12/11 11:50:38;;;;;;;24.52;9.75;;;3.60;88.90;;;;;;4962023;28;20070;-70
2021/12/11 11:53:05;;;;;;;19.13;9.68;;;3.70;88.80;;;;;;4960985;28;20035;-69
2021/12/11 11:55:38;;;;;;;23.20;9.55;;;3.70;87.80;;;;;;4961852;28;20764;-69
2021/12/11 11:58:05;;;;;;;22.92;9.93;;;3.60;88.30;;;;;;4960518;28;20038;-69
2021/12/11 12:00:43;;;;;;;22.40;9.70;;;3.70;88.20;;;;;;4963004;28;20034;-69
2021/12/11 12:03:10;;;;;;;24.40;10.05;;;3.70;88.50;;;;;;4965442;28;20027;-69
2021/12/11 12:05:37;;;;;;;23.00;10.45;;;3.60;89.00;;;;;;4962912;28;20758;-69
2021/12/11 12:08:05;;;;;;;22.83;10.38;;;3.70;89.20;;;;;;4961546;28;20035;-70
2021/12/11 12:10:32;;;;;;;19.20;9.18;;;3.70;89.60;;;;;;4960650;28;20030;-69
2021/12/11 12:12:57;;;;;;;22.15;10.27;;;3.70;88.70;;;;;;4960665;28;20031;-69
2021/12/11 12:15:30;;;;;;;17.98;8.60;;;3.70;89.20;;;;;;4962365;28;20533;-69
2021/12/11 12:17:56;;;;;;;21.80;8.82;;;3.80;88.70;;;;;;4961032;28;20038;-69
2021/12/11 12:20:22;;;;;;;21.92;10.23;;;3.70;89.20;;;;;;4962677;28;20077;-69
2021/12/11 12:22:50;;;;;;;17.63;8.45;;;3.70;89.60;;;;;;4964917;28;20506;-69
2021/12/11 12:25:16;;;;;;;20.15;8.98;;;3.80;89.70;;;;;;4963215;28;20039;-69
2021/12/11 12:27:44;;;;;;;18.33;9.25;;;3.80;89.70;;;;;;4962253;28;20085;-69
2021/12/11 12:30:17;;;;;;;19.85;8.25;;;3.80;89.70;;;;;;4964938;28;20077;-69
2021/12/11 12:32:42;;;;;;;18.27;8.48;;;3.80;89.60;;;;;;4976506;28;20035;-70
2021/12/11 12:35:13;;;;;;;20.75;9.02;;;3.80;89.30;;;;;;4963054;28;20027;-70
2021/12/11 12:37:40;;;;;;;18.35;8.68;;;3.80;89.10;;;;;;4961782;28;20035;-69
2021/12/11 12:40:11;;;;;;;16.35;7.85;;;3.80;89.50;;;;;;4961648;28;20047;-70
2021/12/11 12:42:49;;;;;;;15.77;8.85;;;3.80;89.60;;;;;;4963226;28;20038;-69
2021/12/11 12:45:31;;;;;;;16.20;8.10;;;3.80;89.70;;;;;;4965896;28;20027;-69
2021/12/11 12:48:03;;;;;;;14.75;7.32;;;3.80;89.30;;;;;;4961991;28;20684;-69
2021/12/11 12:50:42;;;;;;;17.80;8.57;;;3.90;88.90;;;;;;4963859;28;20483;-69
2021/12/11 12:53:10;;;;;;;17.13;8.60;;;3.90;89.30;;;;;;4961331;28;20177;-69
2021/12/11 12:55:42;;;;;;;18.33;9.65;;;3.90;88.90;;;;;;4961368;28;20039;-68
2021/12/11 12:58:15;;;;;;;18.58;8.75;;;3.90;89.20;;;;;;4961924;28;20060;-68
2021/12/11 13:00:46;;;;;;;21.60;9.15;;;3.90;89.00;;;;;;4970291;28;20038;-68
2021/12/11 13:03:19;;;;;;;18.20;8.82;;;3.90;89.20;;;;;;4960507;28;20042;-68
2021/12/11 13:05:53;;;;;;;22.35;9.60;;;3.90;89.60;;;;;;4961404;28;20039;-68
2021/12/11 13:08:36;;;;;;;19.50;9.13;;;3.80;88.60;;;;;;4960269;28;20066;-66
2021/12/11 13:11:06;;;;;;;20.75;9.48;;;3.90;88.70;;;;;;4959879;28;20031;-66
2021/12/11 13:13:33;;;;;;;19.67;9.32;;;3.80;87.60;;;;;;4960144;28;20045;-68